createdAt,value
2022-08-05T00:02:22.775Z,16.40
2022-08-05T00:04:55.542Z,16.40
2022-08-05T00:07:59.196Z,16.40
2022-08-05T00:10:11.276Z,16.30
2022-08-05T00:12:55.623Z,16.40
2022-08-05T00:15:55.110Z,16.40
2022-08-05T00:18:10.490Z,16.30
2022-08-05T00:20:49.214Z,16.20
2022-08-05T00:23:16.115Z,16.30
2022-08-05T00:25:46.166Z,16.30
2022-08-05T00:28:13.851Z,16.30
2022-08-05T00:30:43.996Z,16.30
2022-08-05T00:34:41.980Z,16.20
2022-08-05T00:36:15.837Z,16.20
2022-08-05T00:38:46.554Z,16.20
2022-08-05T00:41:13.589Z,16.20
2022-08-05T00:43:46.516Z,16.20
2022-08-05T00:46:14.331Z,16.30
2022-08-05T00:48:51.358Z,16.30
2022-08-05T00:51:51.999Z,16.30
2022-08-05T00:54:08.191Z,16.30
2022-08-05T00:56:38.506Z,16.30
2022-08-05T00:59:18.453Z,16.10
2022-08-05T01:01:48.882Z,16.10
2022-08-05T01:04:20.239Z,16.10
2022-08-05T01:06:55.051Z,16.00
2022-08-05T01:09:22.716Z,15.90
2022-08-05T01:11:52.258Z,15.80
2022-08-05T01:14:53.245Z,15.80
2022-08-05T01:17:43.956Z,15.80
2022-08-05T01:20:29.677Z,15.80
2022-08-05T01:23:23.333Z,15.80
2022-08-05T01:26:02.690Z,15.90
2022-08-05T01:28:36.498Z,15.90
2022-08-05T01:31:45.121Z,15.80
2022-08-05T01:34:39.611Z,15.80
2022-08-05T01:37:18.158Z,15.70
2022-08-05T01:39:59.017Z,15.60
2022-08-05T01:42:28.093Z,15.60
2022-08-05T01:45:02.375Z,15.60
2022-08-05T01:47:39.052Z,15.50
2022-08-05T01:50:15.652Z,15.50
2022-08-05T01:52:44.295Z,15.50
2022-08-05T01:55:14.759Z,15.40
2022-08-05T01:58:18.826Z,15.50
2022-08-05T02:00:35.727Z,15.40
2022-08-05T02:03:24.007Z,15.50
2022-08-05T02:05:59.643Z,15.40
2022-08-05T02:08:29.745Z,15.40
2022-08-05T02:11:05.318Z,15.40
2022-08-05T02:13:53.786Z,15.30
2022-08-05T02:16:22.374Z,15.30
2022-08-05T02:19:11.048Z,15.30
2022-08-05T02:21:46.884Z,15.20
2022-08-05T02:24:23.368Z,15.30
2022-08-05T02:26:56.475Z,15.30
2022-08-05T02:29:58.897Z,15.30
2022-08-05T02:32:23.708Z,15.20
2022-08-05T02:34:55.078Z,15.20
2022-08-05T02:37:23.801Z,15.20
2022-08-05T02:39:53.718Z,15.20
2022-08-05T02:42:26.089Z,15.20
2022-08-05T02:44:56.780Z,15.10
2022-08-05T02:47:36.551Z,15.20
2022-08-05T02:50:18.154Z,15.30
2022-08-05T02:52:46.714Z,15.30
2022-08-05T02:55:14.562Z,15.30
2022-08-05T02:58:11.928Z,15.30
2022-08-05T03:00:35.141Z,15.30
2022-08-05T03:03:10.344Z,15.40
2022-08-05T03:06:56.225Z,15.40
2022-08-05T03:08:29.751Z,15.40
2022-08-05T03:11:53.400Z,15.40
2022-08-05T03:13:51.510Z,15.50
2022-08-05T03:16:29.975Z,15.50
2022-08-05T03:18:59.246Z,15.50
2022-08-05T03:21:28.877Z,15.60
2022-08-05T03:24:00.858Z,15.70
2022-08-05T03:26:31.527Z,15.80
2022-08-05T03:28:59.893Z,15.90
2022-08-05T03:31:56.772Z,16.00
2022-08-05T03:34:14.690Z,16.10
2022-08-05T03:36:41.716Z,16.30
2022-08-05T03:39:20.302Z,16.40
2022-08-05T03:41:54.054Z,16.60
2022-08-05T03:44:23.846Z,16.70
2022-08-05T03:46:51.034Z,16.80
2022-08-05T03:49:18.517Z,16.80
2022-08-05T03:52:50.073Z,16.90
2022-08-05T03:56:04.725Z,16.90
2022-08-05T03:57:52.051Z,17.00
2022-08-05T04:00:26.009Z,17.50
2022-08-05T04:02:58.955Z,17.60
2022-08-05T04:05:34.053Z,17.50
2022-08-05T04:08:14.472Z,17.40
2022-08-05T04:10:44.602Z,17.40
2022-08-05T04:13:12.176Z,17.40
2022-08-05T04:15:39.760Z,17.40
2022-08-05T04:18:28.023Z,17.60
2022-08-05T04:20:58.574Z,18.10
2022-08-05T04:23:57.125Z,19.10
2022-08-05T04:26:15.571Z,20.00
2022-08-05T04:28:51.122Z,20.50
2022-08-05T04:31:19.827Z,20.80
2022-08-05T04:34:18.975Z,21.30
2022-08-05T04:36:45.902Z,21.40
2022-08-05T04:39:17.688Z,22.10
2022-08-05T04:41:46.238Z,23.10
2022-08-05T04:44:16.163Z,23.70
2022-08-05T04:46:48.695Z,24.30
2022-08-05T04:49:15.703Z,24.50
2022-08-05T04:51:45.643Z,24.20
2022-08-05T04:54:14.890Z,23.10
2022-08-05T04:56:42.102Z,22.10
2022-08-05T04:59:22.372Z,21.40
2022-08-05T05:02:07.693Z,20.80
2022-08-05T05:04:47.512Z,20.40
2022-08-05T05:07:17.148Z,20.20
2022-08-05T05:09:45.479Z,20.00
2022-08-05T05:12:12.733Z,19.80
2022-08-05T05:14:42.741Z,19.70
2022-08-05T05:17:23.449Z,19.70
2022-08-05T05:19:54.679Z,19.70
2022-08-05T05:22:23.012Z,19.80
2022-08-05T05:24:57.688Z,20.00
2022-08-05T05:27:45.068Z,20.10
2022-08-05T05:30:31.009Z,20.20
2022-08-05T05:33:03.611Z,20.30
2022-08-05T05:35:42.547Z,20.40
2022-08-05T05:38:12.961Z,20.50
2022-08-05T05:40:49.894Z,20.60
2022-08-05T05:43:27.875Z,20.60
2022-08-05T05:46:12.212Z,20.70
2022-08-05T05:48:44.006Z,20.90
2022-08-05T05:51:15.135Z,21.10
2022-08-05T05:53:45.991Z,21.40
2022-08-05T05:56:32.432Z,21.50
2022-08-05T05:59:07.493Z,21.80
2022-08-05T06:01:40.511Z,22.00
2022-08-05T06:04:24.417Z,22.30
2022-08-05T06:06:51.380Z,23.10
2022-08-05T06:09:25.956Z,25.00
2022-08-05T06:12:06.420Z,27.20
2022-08-05T06:14:36.768Z,28.80
2022-08-05T06:17:21.964Z,29.90
2022-08-05T06:19:56.701Z,30.50
2022-08-05T06:22:29.450Z,30.80
2022-08-05T06:24:56.967Z,31.60
2022-08-05T06:28:11.467Z,32.00
2022-08-05T06:30:16.706Z,32.20
2022-08-05T06:32:47.432Z,32.30
2022-08-05T06:35:15.626Z,32.10
2022-08-05T06:38:08.340Z,32.40
2022-08-05T06:40:38.120Z,32.30
2022-08-05T06:43:57.412Z,32.70
2022-08-05T06:46:03.932Z,32.80
2022-08-05T06:48:56.789Z,32.90
2022-08-05T06:51:29.736Z,33.20
2022-08-05T06:54:02.605Z,33.50
2022-08-05T06:56:34.647Z,33.70
2022-08-05T06:59:04.018Z,34.20
2022-08-05T07:01:36.996Z,33.90
2022-08-05T07:04:07.749Z,33.80
2022-08-05T07:06:34.768Z,35.00
2022-08-05T07:09:04.371Z,35.10
2022-08-05T07:11:33.127Z,34.80
2022-08-05T07:14:29.471Z,34.90
2022-08-05T07:17:59.946Z,34.40
2022-08-05T07:22:38.013Z,34.60
2022-08-05T07:25:23.191Z,34.90
2022-08-05T07:28:00.591Z,35.00
2022-08-05T07:30:39.066Z,35.50
2022-08-05T07:33:10.161Z,35.50
2022-08-05T07:36:04.656Z,35.70
2022-08-05T07:38:34.219Z,35.40
2022-08-05T07:42:06.759Z,35.50
2022-08-05T07:43:56.906Z,35.80
2022-08-05T07:46:26.567Z,36.00
2022-08-05T07:49:03.931Z,36.60
2022-08-05T07:51:41.023Z,35.80
2022-08-05T07:54:26.648Z,35.90
2022-08-05T07:57:02.335Z,35.30
2022-08-05T07:59:42.385Z,35.60
2022-08-05T08:02:16.675Z,36.00
2022-08-05T08:04:49.539Z,35.80
2022-08-05T08:07:23.067Z,35.50
2022-08-05T08:09:52.880Z,35.80
2022-08-05T08:12:37.284Z,36.50
2022-08-05T08:15:09.766Z,36.50
2022-08-05T08:17:50.751Z,36.60
2022-08-05T08:20:45.256Z,36.50
2022-08-05T08:24:00.142Z,35.90
2022-08-05T08:26:00.180Z,35.40
2022-08-05T08:28:36.611Z,35.90
2022-08-05T08:31:15.091Z,36.30
2022-08-05T08:33:45.579Z,34.90
2022-08-05T08:36:38.127Z,35.10
2022-08-05T08:39:05.342Z,35.90
2022-08-05T08:41:52.479Z,37.10
2022-08-05T08:45:20.173Z,36.70
2022-08-05T08:48:06.205Z,36.70
2022-08-05T08:50:31.262Z,36.60
2022-08-05T08:53:07.937Z,36.90
2022-08-05T08:56:03.837Z,37.20
2022-08-05T08:58:43.285Z,36.80
2022-08-05T09:01:16.379Z,36.90
2022-08-05T09:03:57.471Z,36.90
2022-08-05T09:06:31.419Z,36.50
2022-08-05T09:09:00.996Z,36.60
2022-08-05T09:11:51.155Z,36.60
2022-08-05T09:14:59.037Z,37.20
2022-08-05T09:17:15.943Z,36.50
2022-08-05T09:20:02.520Z,35.80
2022-08-05T09:23:04.924Z,36.00
2022-08-05T09:26:01.420Z,36.00
2022-08-05T09:28:31.620Z,37.40
2022-08-05T09:31:22.093Z,38.20
2022-08-05T09:33:56.219Z,37.30
2022-08-05T09:36:27.383Z,36.90
2022-08-05T09:39:16.564Z,36.80
2022-08-05T09:42:04.046Z,36.60
2022-08-05T09:44:36.592Z,36.40
2022-08-05T09:47:12.808Z,36.90
2022-08-05T09:50:03.532Z,36.50
2022-08-05T09:52:33.644Z,37.10
2022-08-05T09:55:55.620Z,37.20
2022-08-05T09:57:54.363Z,37.50
2022-08-05T10:00:26.542Z,36.90
2022-08-05T10:02:58.570Z,36.70
2022-08-05T10:05:28.428Z,37.00
2022-08-05T10:08:37.009Z,37.10
2022-08-05T10:10:54.342Z,36.90
2022-08-05T10:13:43.903Z,37.50
2022-08-05T10:16:32.223Z,37.10
2022-08-05T10:19:01.846Z,37.40
2022-08-05T10:21:40.240Z,37.50
2022-08-05T10:24:10.717Z,38.00
2022-08-05T10:26:49.109Z,37.30
2022-08-05T10:29:23.937Z,36.60
2022-08-05T10:32:59.446Z,36.50
2022-08-05T10:35:00.556Z,36.90
2022-08-05T10:37:40.093Z,37.20
2022-08-05T10:40:40.487Z,37.10
2022-08-05T10:43:50.467Z,37.10
2022-08-05T10:46:23.891Z,36.40
2022-08-05T10:49:01.447Z,36.40
2022-08-05T10:51:48.698Z,36.20
2022-08-05T10:54:47.263Z,36.50
2022-08-05T10:57:30.901Z,35.60
2022-08-05T11:00:24.005Z,35.60
2022-08-05T11:03:24.291Z,35.60
2022-08-05T11:06:15.493Z,35.40
2022-08-05T11:09:16.436Z,36.50
2022-08-05T11:11:53.416Z,36.20
2022-08-05T11:14:49.493Z,36.10
2022-08-05T11:17:57.583Z,36.60
2022-08-05T11:20:43.860Z,36.10
2022-08-05T11:24:03.228Z,36.30
2022-08-05T11:26:28.858Z,36.00
2022-08-05T11:29:06.568Z,36.10
2022-08-05T11:31:57.234Z,36.00
2022-08-05T11:34:37.930Z,36.70
2022-08-05T11:37:06.234Z,36.90
2022-08-05T11:39:55.596Z,36.60
2022-08-05T11:42:29.827Z,37.10
2022-08-05T11:45:05.509Z,37.00
2022-08-05T11:47:48.510Z,36.30
2022-08-05T11:50:17.544Z,36.30
2022-08-05T11:52:46.190Z,36.30
2022-08-05T11:55:16.028Z,36.40
2022-08-05T11:58:09.771Z,36.00
2022-08-05T12:00:37.787Z,35.30
2022-08-05T12:03:28.529Z,35.10
2022-08-05T12:06:02.650Z,35.10
2022-08-05T12:08:31.535Z,35.20
2022-08-05T12:11:05.871Z,35.60
2022-08-05T12:13:48.919Z,36.60
2022-08-05T12:16:19.497Z,35.90
2022-08-05T12:18:52.150Z,35.60
2022-08-05T12:21:23.609Z,35.00
2022-08-05T12:23:58.455Z,35.00
2022-08-05T12:26:39.640Z,34.90
2022-08-05T12:29:23.299Z,34.90
2022-08-05T12:32:02.076Z,35.00
2022-08-05T12:34:35.829Z,34.80
2022-08-05T12:37:17.222Z,34.20
2022-08-05T12:39:51.410Z,34.50
2022-08-05T12:42:20.999Z,34.70
2022-08-05T12:44:48.669Z,34.00
2022-08-05T12:47:28.699Z,34.00
2022-08-05T12:50:03.316Z,34.20
2022-08-05T12:52:39.468Z,33.90
2022-08-05T12:55:25.698Z,32.70
2022-08-05T12:58:52.425Z,31.90
2022-08-05T13:02:00.872Z,31.30
2022-08-05T13:03:32.571Z,30.90
2022-08-05T13:06:01.207Z,30.90
2022-08-05T13:08:32.214Z,30.70
2022-08-05T13:11:02.144Z,30.60
2022-08-05T13:14:05.834Z,30.70
2022-08-05T13:16:17.655Z,30.60
2022-08-05T13:18:57.898Z,30.50
2022-08-05T13:21:27.685Z,30.50
2022-08-05T13:23:55.755Z,30.40
2022-08-05T13:26:29.982Z,30.50
2022-08-05T13:28:59.138Z,30.50
2022-08-05T13:31:33.796Z,30.40
2022-08-05T13:34:22.941Z,30.50
2022-08-05T13:36:53.162Z,30.50
2022-08-05T13:40:13.377Z,30.40
2022-08-05T13:42:13.932Z,30.30
2022-08-05T13:44:45.376Z,30.40
2022-08-05T13:47:34.864Z,30.40
2022-08-05T13:50:04.261Z,30.30
2022-08-05T13:52:32.270Z,30.30
2022-08-05T13:55:07.296Z,30.30
2022-08-05T13:57:48.725Z,30.30
2022-08-05T14:00:26.913Z,30.40
2022-08-05T14:02:56.515Z,30.40
2022-08-05T14:05:29.729Z,30.30
2022-08-05T14:08:20.181Z,30.30
2022-08-05T14:10:48.963Z,30.30
2022-08-05T14:13:16.328Z,30.50
2022-08-05T14:16:08.353Z,30.50
2022-08-05T14:18:30.458Z,30.50
2022-08-05T14:20:59.123Z,30.50
2022-08-05T14:23:33.597Z,30.50
2022-08-05T14:26:04.876Z,30.30
2022-08-05T14:28:33.219Z,30.30
2022-08-05T14:31:01.604Z,30.30
2022-08-05T14:33:56.546Z,30.40
2022-08-05T14:36:21.396Z,30.30
2022-08-05T14:38:53.262Z,30.20
2022-08-05T14:41:21.160Z,30.20
2022-08-05T14:44:01.811Z,30.30
2022-08-05T14:46:37.029Z,30.30
2022-08-05T14:49:07.460Z,30.30
2022-08-05T14:51:37.691Z,30.30
2022-08-05T14:54:27.638Z,30.20
2022-08-05T14:56:55.749Z,30.20
2022-08-05T14:59:23.141Z,30.00
2022-08-05T15:01:50.587Z,30.00
2022-08-05T15:04:20.575Z,30.10
2022-08-05T15:06:49.585Z,30.10
2022-08-05T15:09:51.141Z,30.10
2022-08-05T15:12:06.389Z,30.20
2022-08-05T15:14:43.118Z,30.30
2022-08-05T15:17:45.896Z,30.30
2022-08-05T15:20:05.126Z,30.20
2022-08-05T15:22:32.104Z,30.20
2022-08-05T15:25:13.851Z,30.20
2022-08-05T15:27:42.706Z,30.20
2022-08-05T15:30:11.107Z,30.20
2022-08-05T15:32:41.540Z,30.20
2022-08-05T15:35:10.551Z,30.10
2022-08-05T15:38:34.854Z,30.20
2022-08-05T15:41:02.517Z,30.00
2022-08-05T15:43:20.332Z,30.00
2022-08-05T15:46:00.663Z,30.00
2022-08-05T15:48:28.559Z,29.90
2022-08-05T15:50:56.430Z,29.90
2022-08-05T15:53:26.585Z,29.80
2022-08-05T15:56:14.094Z,29.80
2022-08-05T15:58:41.605Z,29.60
2022-08-05T16:01:16.341Z,29.60
2022-08-05T16:03:50.515Z,29.50
2022-08-05T16:06:19.578Z,29.40
2022-08-05T16:08:48.321Z,29.40
2022-08-05T16:11:18.555Z,29.40
2022-08-05T16:13:48.597Z,29.30
2022-08-05T16:16:21.279Z,29.20
2022-08-05T16:18:53.081Z,29.10
2022-08-05T16:22:00.220Z,29.00
2022-08-05T16:24:12.759Z,28.90
2022-08-05T16:26:58.490Z,28.80
2022-08-05T16:29:26.734Z,28.80
2022-08-05T16:31:56.798Z,28.70
2022-08-05T16:34:26.264Z,28.60
2022-08-05T16:36:54.046Z,28.60
2022-08-05T16:39:21.330Z,28.50
2022-08-05T16:42:14.041Z,28.40
2022-08-05T16:44:44.350Z,28.30
2022-08-05T16:47:28.711Z,28.30
2022-08-05T16:50:04.276Z,28.30
2022-08-05T16:52:33.476Z,28.20
2022-08-05T16:55:00.864Z,28.10
2022-08-05T16:57:52.969Z,28.10
2022-08-05T17:00:26.257Z,28.10
2022-08-05T17:03:15.311Z,28.10
2022-08-05T17:05:53.733Z,28.20
2022-08-05T17:08:36.088Z,28.20
2022-08-05T17:11:12.781Z,28.20
2022-08-05T17:13:44.790Z,28.20
2022-08-05T17:16:29.948Z,28.30
2022-08-05T17:18:59.788Z,28.20
2022-08-05T17:21:36.060Z,28.20
2022-08-05T17:24:31.263Z,28.20
2022-08-05T17:26:56.348Z,28.10
2022-08-05T17:29:33.749Z,28.20
2022-08-05T17:32:17.240Z,28.10
2022-08-05T17:34:49.112Z,28.10
2022-08-05T17:37:39.866Z,28.00
2022-08-05T17:40:10.273Z,27.90
2022-08-05T17:42:41.441Z,27.90
2022-08-05T17:45:20.738Z,27.80
2022-08-05T17:47:53.979Z,27.70
2022-08-05T17:50:29.005Z,27.60
2022-08-05T17:53:05.130Z,27.50
2022-08-05T17:55:37.791Z,27.30
2022-08-05T17:58:12.884Z,27.10
2022-08-05T18:00:44.525Z,27.00
2022-08-05T18:03:24.077Z,27.00
2022-08-05T18:06:04.910Z,26.90
2022-08-05T18:08:33.697Z,26.80
2022-08-05T18:11:03.159Z,26.70
2022-08-05T18:13:36.834Z,26.60
2022-08-05T18:16:13.501Z,26.40
2022-08-05T18:18:42.317Z,26.20
2022-08-05T18:21:21.164Z,26.10
2022-08-05T18:23:53.982Z,26.00
2022-08-05T18:26:29.375Z,26.00
2022-08-05T18:28:59.376Z,25.90
2022-08-05T18:31:33.780Z,25.80
2022-08-05T18:34:06.431Z,25.60
2022-08-05T18:36:41.264Z,25.40
2022-08-05T18:39:22.361Z,25.20
2022-08-05T18:42:06.253Z,25.00
2022-08-05T18:44:51.403Z,25.00
2022-08-05T18:47:22.931Z,24.90
2022-08-05T18:50:12.876Z,24.70
2022-08-05T18:52:50.509Z,24.70
2022-08-05T18:55:22.311Z,24.70
2022-08-05T18:57:53.176Z,24.60
2022-08-05T19:00:27.151Z,24.60
2022-08-05T19:03:03.663Z,24.50
2022-08-05T19:06:13.250Z,24.50
2022-08-05T19:08:18.994Z,24.50
2022-08-05T19:10:45.937Z,24.40
2022-08-05T19:13:16.040Z,24.30
2022-08-05T19:15:57.166Z,24.20
2022-08-05T19:18:28.125Z,24.20
2022-08-05T19:20:56.044Z,24.30
2022-08-05T19:24:05.570Z,24.30
2022-08-05T19:26:11.340Z,24.20
2022-08-05T19:28:43.823Z,24.20
2022-08-05T19:31:13.393Z,24.10
2022-08-05T19:33:48.710Z,24.10
2022-08-05T19:36:23.970Z,23.90
2022-08-05T19:38:51.550Z,23.70
2022-08-05T19:41:22.084Z,23.60
2022-08-05T19:44:13.826Z,23.60
2022-08-05T19:46:41.175Z,23.50
2022-08-05T19:49:16.502Z,23.50
2022-08-05T19:52:09.436Z,23.50
2022-08-05T19:54:31.928Z,23.40
2022-08-05T19:57:09.310Z,23.30
2022-08-05T19:59:59.391Z,23.30
2022-08-05T20:02:31.494Z,23.20
2022-08-05T20:04:59.751Z,23.10
2022-08-05T20:07:46.930Z,23.20
2022-08-05T20:10:16.354Z,23.10
2022-08-05T20:12:46.188Z,23.20
2022-08-05T20:15:23.118Z,23.20
2022-08-05T20:18:10.569Z,23.20
2022-08-05T20:20:51.891Z,23.20
2022-08-05T20:23:22.522Z,23.10
2022-08-05T20:25:52.338Z,23.10
2022-08-05T20:28:21.327Z,23.10
2022-08-05T20:30:49.528Z,23.10
2022-08-05T20:33:16.465Z,23.00
2022-08-05T20:35:45.646Z,22.90
2022-08-05T20:38:20.163Z,22.80
2022-08-05T20:40:55.385Z,22.70
2022-08-05T20:43:33.370Z,22.60
2022-08-05T20:46:18.485Z,22.50
2022-08-05T20:48:52.366Z,22.40
2022-08-05T20:51:19.532Z,22.40
2022-08-05T20:53:56.885Z,22.30
2022-08-05T20:56:28.974Z,22.30
2022-08-05T20:59:04.158Z,22.20
2022-08-05T21:01:41.761Z,22.10
2022-08-05T21:04:10.780Z,22.00
2022-08-05T21:06:45.476Z,22.00
2022-08-05T21:09:14.643Z,22.10
2022-08-05T21:12:08.089Z,22.10
2022-08-05T21:14:35.064Z,22.20
2022-08-05T21:17:04.890Z,22.20
2022-08-05T21:19:47.629Z,22.20
2022-08-05T21:22:18.707Z,22.30
2022-08-05T21:24:51.565Z,22.20
2022-08-05T21:27:25.257Z,22.20
2022-08-05T21:29:56.013Z,22.20
2022-08-05T21:32:27.690Z,22.10
2022-08-05T21:35:08.879Z,21.90
2022-08-05T21:37:53.106Z,21.80
2022-08-05T21:40:24.358Z,21.70
2022-08-05T21:42:52.943Z,21.70
2022-08-05T21:45:26.436Z,21.70
2022-08-05T21:48:09.337Z,21.60
2022-08-05T21:50:37.316Z,21.50
2022-08-05T21:53:16.287Z,21.50
2022-08-05T21:56:04.910Z,21.40
2022-08-05T21:58:32.381Z,21.30
2022-08-05T22:01:00.006Z,21.30
2022-08-05T22:03:52.815Z,21.30
2022-08-05T22:06:15.952Z,21.30
2022-08-05T22:08:51.798Z,21.30
2022-08-05T22:11:34.940Z,21.30
2022-08-05T22:14:05.740Z,21.50
2022-08-05T22:16:51.291Z,21.50
2022-08-05T22:20:03.522Z,21.60
2022-08-05T22:22:06.884Z,21.50
2022-08-05T22:24:53.535Z,21.50
2022-08-05T22:28:10.897Z,21.70
2022-08-05T22:30:35.292Z,21.70
2022-08-05T22:33:04.506Z,21.70
2022-08-05T22:35:49.221Z,21.70
2022-08-05T22:38:17.275Z,21.70
2022-08-05T22:40:49.379Z,21.60
2022-08-05T22:43:36.630Z,21.70
2022-08-05T22:46:13.231Z,21.60
2022-08-05T22:48:41.935Z,21.60
2022-08-05T22:51:15.976Z,21.60
2022-08-05T22:53:51.050Z,21.60
2022-08-05T22:56:30.597Z,21.60
2022-08-05T22:59:04.008Z,21.60
2022-08-05T23:02:03.836Z,21.60
2022-08-05T23:04:33.811Z,21.70
2022-08-05T23:07:01.250Z,21.70
2022-08-05T23:09:57.470Z,21.70
2022-08-05T23:12:18.016Z,21.80
2022-08-05T23:14:45.202Z,21.70
2022-08-05T23:17:34.349Z,21.80
2022-08-05T23:20:16.290Z,21.80
2022-08-05T23:22:47.437Z,21.70
2022-08-05T23:25:53.688Z,21.80
2022-08-05T23:28:06.970Z,21.80
2022-08-05T23:30:40.369Z,21.70
2022-08-05T23:33:22.092Z,21.60
2022-08-05T23:35:55.167Z,21.70
2022-08-05T23:38:24.215Z,21.70
2022-08-05T23:40:52.876Z,21.70
2022-08-05T23:43:25.456Z,21.70
2022-08-05T23:46:20.579Z,21.60
2022-08-05T23:49:00.659Z,21.60
2022-08-05T23:51:53.915Z,21.60
2022-08-05T23:54:30.472Z,21.60
2022-08-05T23:57:03.346Z,21.70
